Time;durP1;ratioP1;P1;durP2;ratioP2;P2;SDS_P1;SDS_P2;PMS_P1;PMS_P2;Temp;Humidity;BMP_temperature;BMP_pressure;BME280_temperature;BME280_humidity;BME280_pressure;Samples;Min_cycle;Max_cycle;Signal;HPM_P1;HPM_P2
2022/08/20 00:01:58;;;;;;;;;;;23.40;72.80;;;;;;6097508;23;892;-67
2022/08/20 00:04:24;;;;;;;;;;;23.40;72.80;;;;;;6097662;23;1902;-67
2022/08/20 00:06:49;;;;;;;;;;;23.40;72.80;;;;;;6098333;23;896;-67
2022/08/20 00:09:14;;;;;;;;;;;23.40;72.80;;;;;;6097397;23;900;-66
2022/08/20 00:11:40;;;;;;;;;;;23.40;72.80;;;;;;6096982;23;1006;-67
2022/08/20 00:14:05;;;;;;;;;;;23.40;72.80;;;;;;6096286;23;1039;-64
2022/08/20 00:16:32;;;;;;;;;;;23.40;72.80;;;;;;6097514;23;1199;-68
2022/08/20 00:19:00;;;;;;;;;;;23.40;72.80;;;;;;6097925;23;906;-67
2022/08/20 00:21:26;;;;;;;;;;;23.40;72.80;;;;;;6096108;23;1322;-64
2022/08/20 00:23:52;;;;;;;;;;;23.40;72.80;;;;;;6097699;23;1885;-66
2022/08/20 00:26:17;;;;;;;;;;;23.40;72.80;;;;;;6097544;23;1160;-66
2022/08/20 00:28:43;;;;;;;;;;;23.40;72.80;;;;;;6096304;23;1037;-66
2022/08/20 00:31:09;;;;;;;;;;;23.40;72.80;;;;;;6097873;23;798;-66
2022/08/20 00:33:34;;;;;;;;;;;23.40;72.80;;;;;;6096143;23;800;-67
2022/08/20 00:36:05;;;;;;;;;;;23.40;72.80;;;;;;6095550;23;1285;-67
2022/08/20 00:38:31;;;;;;;;;;;23.40;72.90;;;;;;6097727;23;876;-67
2022/08/20 00:40:58;;;;;;;;;;;23.40;72.90;;;;;;6096159;23;837;-67
2022/08/20 00:43:32;;;;;;;;;;;23.40;72.90;;;;;;6096054;23;1890;-67
2022/08/20 00:45:58;;;;;;;;;;;23.40;72.90;;;;;;6097448;23;1278;-65
2022/08/20 00:48:24;;;;;;;;;;;23.40;72.90;;;;;;6097518;23;924;-64
2022/08/20 00:50:49;;;;;;;;;;;23.40;72.90;;;;;;6097778;23;805;-64
2022/08/20 00:53:15;;;;;;;;;;;23.40;72.90;;;;;;6097454;23;793;-64
2022/08/20 00:55:41;;;;;;;;;;;23.40;72.90;;;;;;6095293;23;1139;-67
2022/08/20 00:58:08;;;;;;;;;;;23.40;72.90;;;;;;6097063;23;861;-67
2022/08/20 01:00:44;;;;;;;;;;;23.40;72.90;;;;;;6097543;23;777;-66
2022/08/20 01:03:10;;;;;;;;;;;23.40;72.90;;;;;;6097225;23;1993;-66
2022/08/20 01:05:36;;;;;;;;;;;23.40;72.90;;;;;;6096824;23;1201;-67
2022/08/20 01:08:02;;;;;;;;;;;23.40;72.90;;;;;;6097279;23;821;-66
2022/08/20 01:10:28;;;;;;;;;;;23.40;72.90;;;;;;6095851;23;845;-66
2022/08/20 01:12:56;;;;;;;;;;;23.40;72.90;;;;;;6095761;23;869;-66
2022/08/20 01:15:23;;;;;;;;;;;23.40;72.90;;;;;;6071378;23;1290;-67
2022/08/20 01:17:52;;;;;;;;;;;23.40;73.00;;;;;;6095798;23;858;-64
2022/08/20 01:20:18;;;;;;;;;;;23.40;72.90;;;;;;6095959;23;829;-64
2022/08/20 01:25:45;;;;;;;;;;;23.40;72.90;;;;;;6095393;23;1331;-65
2022/08/20 01:28:11;;;;;;;;;;;23.40;72.90;;;;;;6097136;23;789;-64
2022/08/20 01:30:36;;;;;;;;;;;23.40;73.00;;;;;;6097303;23;1066;-66
2022/08/20 01:33:03;;;;;;;;;;;23.40;72.90;;;;;;6097006;23;845;-66
2022/08/20 01:35:29;;;;;;;;;;;23.40;73.00;;;;;;6095316;23;1196;-66
2022/08/20 01:37:54;;;;;;;;;;;23.40;72.90;;;;;;6096886;23;900;-66
2022/08/20 01:40:23;;;;;;;;;;;23.40;72.90;;;;;;6095417;23;908;-66
2022/08/20 01:42:49;;;;;;;;;;;23.40;72.90;;;;;;6095570;23;1010;-67
2022/08/20 01:45:14;;;;;;;;;;;23.40;72.30;;;;;;6096942;23;1201;-68
2022/08/20 01:47:40;;;;;;;;;;;23.40;72.90;;;;;;6096824;23;1050;-66
2022/08/20 01:50:16;;;;;;;;;;;23.40;72.90;;;;;;6071566;23;1403;-66
2022/08/20 01:52:42;;;;;;;;;;;23.40;73.00;;;;;;6095727;23;872;-66
2022/08/20 01:55:07;;;;;;;;;;;23.40;72.90;;;;;;6093822;23;1184;-66
2022/08/20 01:57:33;;;;;;;;;;;23.40;73.00;;;;;;6095069;23;884;-67
2022/08/20 01:59:59;;;;;;;;;;;23.40;73.00;;;;;;6097085;23;864;-66
2022/08/20 02:02:24;;;;;;;;;;;23.40;73.00;;;;;;6097262;23;923;-66
2022/08/20 02:04:50;;;;;;;;;;;23.40;73.00;;;;;;6096691;23;1893;-66
2022/08/20 02:07:16;;;;;;;;;;;23.40;73.00;;;;;;6096967;23;836;-67
2022/08/20 02:09:42;;;;;;;;;;;23.40;73.00;;;;;;6095625;23;749;-67
2022/08/20 02:12:08;;;;;;;;;;;23.40;73.00;;;;;;6095462;23;892;-67
2022/08/20 02:14:33;;;;;;;;;;;23.40;73.00;;;;;;6095448;23;1285;-67
2022/08/20 02:16:59;;;;;;;;;;;23.40;73.00;;;;;;6096569;23;1002;-66
2022/08/20 02:19:30;;;;;;;;;;;23.40;73.00;;;;;;6096963;23;788;-66
2022/08/20 02:21:57;;;;;;;;;;;23.40;73.00;;;;;;6095298;23;832;-65
2022/08/20 02:24:22;;;;;;;;;;;23.40;73.00;;;;;;6095307;23;2009;-64
2022/08/20 02:26:48;;;;;;;;;;;23.40;73.00;;;;;;6096538;23;1018;-67
2022/08/20 02:29:13;;;;;;;;;;;23.40;73.00;;;;;;6095653;23;844;-67
2022/08/20 02:31:39;;;;;;;;;;;23.40;73.00;;;;;;6096919;23;792;-67
2022/08/20 02:34:05;;;;;;;;;;;23.40;73.00;;;;;;6096743;23;824;-67
2022/08/20 02:36:31;;;;;;;;;;;23.40;73.00;;;;;;6094647;23;1173;-67
2022/08/20 02:38:56;;;;;;;;;;;23.40;73.00;;;;;;6096709;23;955;-66
2022/08/20 02:41:22;;;;;;;;;;;23.40;73.00;;;;;;6096776;23;872;-65
2022/08/20 02:43:48;;;;;;;;;;;23.40;73.00;;;;;;6096637;23;1935;-66
2022/08/20 02:46:14;;;;;;;;;;;23.40;73.00;;;;;;6070728;23;1266;-66
2022/08/20 02:48:40;;;;;;;;;;;23.40;73.00;;;;;;6097012;23;863;-66
2022/08/20 02:51:06;;;;;;;;;;;23.40;73.00;;;;;;6096604;23;789;-66
2022/08/20 02:53:32;;;;;;;;;;;23.40;73.00;;;;;;6095089;23;820;-66
2022/08/20 02:55:59;;;;;;;;;;;23.40;73.00;;;;;;6095936;23;1276;-66
2022/08/20 02:58:24;;;;;;;;;;;23.40;73.00;;;;;;6096722;23;801;-66
2022/08/20 03:00:50;;;;;;;;;;;23.40;73.00;;;;;;6095243;23;912;-67
2022/08/20 03:03:19;;;;;;;;;;;23.40;73.00;;;;;;6096595;23;1901;-67
2022/08/20 03:05:44;;;;;;;;;;;23.40;73.00;;;;;;6094526;23;1189;-66
2022/08/20 03:08:10;;;;;;;;;;;23.40;73.00;;;;;;6096597;23;773;-66
2022/08/20 03:10:36;;;;;;;;;;;23.40;73.10;;;;;;6071060;23;813;-66
2022/08/20 03:13:02;;;;;;;;;;;23.40;73.00;;;;;;6095094;23;840;-65
2022/08/20 03:15:28;;;;;;;;;;;23.40;73.00;;;;;;6096313;23;1187;-66
2022/08/20 03:17:53;;;;;;;;;;;23.40;73.10;;;;;;6095022;23;912;-66
2022/08/20 03:20:19;;;;;;;;;;;23.40;73.10;;;;;;6095019;23;830;-66
2022/08/20 03:22:44;;;;;;;;;;;23.40;73.00;;;;;;6096511;23;1042;-66
2022/08/20 03:25:10;;;;;;;;;;;23.40;73.00;;;;;;6097493;23;1889;-67
2022/08/20 03:27:36;;;;;;;;;;;23.40;73.00;;;;;;6072368;23;1173;-69
2022/08/20 03:30:01;;;;;;;;;;;23.40;73.10;;;;;;6096952;23;916;-64
2022/08/20 03:32:27;;;;;;;;;;;23.30;73.00;;;;;;6096899;23;801;-66
2022/08/20 03:34:52;;;;;;;;;;;23.40;73.10;;;;;;6072413;23;1179;-67
2022/08/20 03:37:17;;;;;;;;;;;23.40;73.10;;;;;;6098086;23;837;-66
2022/08/20 03:39:43;;;;;;;;;;;23.40;73.10;;;;;;6098609;23;927;-66
2022/08/20 03:42:08;;;;;;;;;;;23.40;73.10;;;;;;6098077;23;928;-68
2022/08/20 03:44:35;;;;;;;;;;;23.30;73.00;;;;;;6097709;23;1926;-67
2022/08/20 03:47:01;;;;;;;;;;;23.40;73.10;;;;;;6097852;23;832;-67
2022/08/20 03:49:27;;;;;;;;;;;23.30;73.00;;;;;;6098087;23;817;-66
2022/08/20 03:51:52;;;;;;;;;;;23.40;73.10;;;;;;6097987;23;1054;-66
2022/08/20 03:54:18;;;;;;;;;;;23.40;73.10;;;;;;6098073;23;707;-66
2022/08/20 03:56:43;;;;;;;;;;;23.40;73.80;;;;;;6115068;23;1993;-67
2022/08/20 03:59:09;;;;;;;;;;;23.40;73.10;;;;;;6100963;23;1290;-66
2022/08/20 04:01:34;;;;;;;;;;;23.40;73.10;;;;;;6127489;23;920;-67
2022/08/20 04:04:00;;;;;;;;;;;23.40;73.10;;;;;;6100762;23;1945;-67
2022/08/20 04:06:26;;;;;;;;;;;23.40;73.10;;;;;;6126078;23;1203;-68
2022/08/20 04:08:52;;;;;;;;;;;23.40;73.10;;;;;;6101013;23;839;-69
2022/08/20 04:11:18;;;;;;;;;;;23.30;73.00;;;;;;6127122;23;836;-68
2022/08/20 04:13:43;;;;;;;;;;;23.40;73.10;;;;;;6126762;23;1006;-68
2022/08/20 04:16:09;;;;;;;;;;;23.30;73.00;;;;;;6125973;23;1299;-70
2022/08/20 04:18:35;;;;;;;;;;;23.30;73.10;;;;;;6126454;23;999;-70
2022/08/20 04:21:01;;;;;;;;;;;23.40;73.10;;;;;;6126656;23;797;-70
2022/08/20 04:23:27;;;;;;;;;;;23.40;73.10;;;;;;6100931;23;1922;-70
2022/08/20 04:25:53;;;;;;;;;;;23.40;73.10;;;;;;6126291;23;1297;-69
2022/08/20 04:28:28;;;;;;;;;;;23.40;73.10;;;;;;6100726;23;849;-69
2022/08/20 04:30:55;;;;;;;;;;;23.30;73.00;;;;;;6103421;23;840;-70
2022/08/20 04:33:23;;;;;;;;;;;23.40;73.10;;;;;;6076183;23;1180;-70
2022/08/20 04:35:49;;;;;;;;;;;23.40;73.10;;;;;;6100788;23;1267;-69
2022/08/20 04:38:15;;;;;;;;;;;23.40;73.10;;;;;;6100579;23;808;-69
2022/08/20 04:40:53;;;;;;;;;;;23.30;73.00;;;;;;6100930;23;935;-69
2022/08/20 04:43:19;;;;;;;;;;;23.40;73.20;;;;;;6103225;23;1917;-69
2022/08/20 04:45:45;;;;;;;;;;;23.40;73.10;;;;;;6125926;23;1273;-69
2022/08/20 04:48:11;;;;;;;;;;;23.40;73.20;;;;;;6126415;23;765;-69
2022/08/20 04:50:36;;;;;;;;;;;23.30;73.10;;;;;;6100361;23;940;-70
2022/08/20 04:53:06;;;;;;;;;;;23.40;73.10;;;;;;6100206;23;813;-70
2022/08/20 04:55:32;;;;;;;;;;;23.40;73.20;;;;;;6099667;23;1219;-68
2022/08/20 04:58:02;;;;;;;;;;;23.40;73.10;;;;;;6100718;23;793;-68
2022/08/20 05:00:28;;;;;;;;;;;23.30;73.10;;;;;;6100043;23;1323;-69
2022/08/20 05:02:53;;;;;;;;;;;23.40;73.20;;;;;;6100135;23;836;-68
2022/08/20 05:05:21;;;;;;;;;;;23.40;73.20;;;;;;6125664;23;1893;-68
2022/08/20 05:07:46;;;;;;;;;;;23.40;73.20;;;;;;6126170;23;781;-68
2022/08/20 05:10:12;;;;;;;;;;;23.40;73.20;;;;;;6125746;23;1053;-68
2022/08/20 05:12:39;;;;;;;;;;;23.30;73.10;;;;;;6100554;23;880;-68
2022/08/20 05:15:04;;;;;;;;;;;23.40;73.20;;;;;;6125873;23;1197;-68
2022/08/20 05:17:30;;;;;;;;;;;23.40;73.20;;;;;;6100127;23;840;-68
2022/08/20 05:19:57;;;;;;;;;;;23.40;73.20;;;;;;6125826;23;824;-68
2022/08/20 05:22:23;;;;;;;;;;;23.40;73.20;;;;;;6126111;23;825;-68
2022/08/20 05:24:48;;;;;;;;;;;23.40;73.20;;;;;;6125991;23;1893;-68
2022/08/20 05:27:17;;;;;;;;;;;23.30;73.10;;;;;;6125451;23;1179;-68
2022/08/20 05:29:42;;;;;;;;;;;23.30;73.10;;;;;;6099912;23;1007;-67
2022/08/20 05:32:07;;;;;;;;;;;23.40;73.20;;;;;;6125637;23;769;-67
2022/08/20 05:34:33;;;;;;;;;;;23.40;73.20;;;;;;6125725;23;797;-68
2022/08/20 05:37:01;;;;;;;;;;;23.40;73.20;;;;;;6125297;23;1175;-68
2022/08/20 05:39:27;;;;;;;;;;;23.30;73.10;;;;;;6100373;23;909;-66
2022/08/20 05:41:52;;;;;;;;;;;23.40;73.10;;;;;;6099969;23;1114;-66
2022/08/20 05:44:18;;;;;;;;;;;23.40;73.10;;;;;;6125197;23;1921;-67
2022/08/20 05:46:43;;;;;;;;;;;23.30;73.10;;;;;;6125304;23;1273;-66
2022/08/20 05:49:09;;;;;;;;;;;23.40;73.20;;;;;;6099731;23;789;-66
2022/08/20 05:51:35;;;;;;;;;;;23.40;73.10;;;;;;6125631;23;891;-66
2022/08/20 05:54:02;;;;;;;;;;;23.40;73.20;;;;;;6100068;23;927;-66
2022/08/20 05:56:29;;;;;;;;;;;23.40;73.10;;;;;;6124741;23;1302;-66
2022/08/20 05:58:54;;;;;;;;;;;23.40;73.20;;;;;;6099980;23;855;-66
2022/08/20 06:01:20;;;;;;;;;;;23.30;73.00;;;;;;6125441;23;892;-67
2022/08/20 06:06:29;;;;;;;;;;;23.30;73.00;;;;;;6103183;23;1254;-66
2022/08/20 06:08:55;;;;;;;;;;;23.40;73.10;;;;;;6125838;23;827;-67
2022/08/20 06:11:21;;;;;;;;;;;23.30;73.00;;;;;;6125214;23;746;-68
2022/08/20 06:13:47;;;;;;;;;;;23.30;73.00;;;;;;6125235;23;821;-65
2022/08/20 06:16:12;;;;;;;;;;;23.30;73.00;;;;;;6125002;23;1270;-64
2022/08/20 06:18:38;;;;;;;;;;;23.30;73.10;;;;;;6125760;23;916;-67
2022/08/20 06:21:03;;;;;;;;;;;23.40;73.10;;;;;;6125914;23;859;-67
2022/08/20 06:23:29;;;;;;;;;;;23.40;73.10;;;;;;6125948;23;1921;-67
2022/08/20 06:25:54;;;;;;;;;;;23.30;73.00;;;;;;6124463;23;1192;-66
2022/08/20 06:28:20;;;;;;;;;;;23.40;73.10;;;;;;6099373;23;774;-66
2022/08/20 06:30:45;;;;;;;;;;;23.40;73.10;;;;;;6100346;23;1400;-66
2022/08/20 06:33:11;;;;;;;;;;;23.30;73.10;;;;;;6125608;23;812;-66
2022/08/20 06:35:36;;;;;;;;;;;23.40;73.10;;;;;;6112385;23;1265;-66
2022/08/20 06:38:02;;;;;;;;;;;23.30;73.00;;;;;;6123259;23;928;-68
2022/08/20 06:40:28;;;;;;;;;;;23.40;73.10;;;;;;6098410;23;829;-67
2022/08/20 06:42:54;;;;;;;;;;;23.40;73.10;;;;;;6124081;23;812;-67
2022/08/20 06:45:23;;;;;;;;;;;23.30;73.00;;;;;;6098194;23;1940;-69
2022/08/20 06:47:54;;;;;;;;;;;23.40;73.10;;;;;;6099039;23;816;-69
2022/08/20 06:50:23;;;;;;;;;;;23.40;73.10;;;;;;6125522;23;1098;-67
2022/08/20 06:52:49;;;;;;;;;;;23.40;73.10;;;;;;6123961;23;1002;-68
2022/08/20 06:55:14;;;;;;;;;;;23.40;73.10;;;;;;6125003;23;1404;-66
2022/08/20 06:57:40;;;;;;;;;;;23.40;73.10;;;;;;6100499;23;848;-66
2022/08/20 07:00:06;;;;;;;;;;;23.30;73.80;;;;;;6126442;23;1006;-67
2022/08/20 07:02:32;;;;;;;;;;;23.40;73.10;;;;;;6125447;23;813;-67
2022/08/20 07:04:58;;;;;;;;;;;23.40;73.10;;;;;;6126847;23;1933;-67
2022/08/20 07:07:23;;;;;;;;;;;23.30;73.10;;;;;;6100515;23;1226;-66
2022/08/20 07:09:49;;;;;;;;;;;23.40;73.10;;;;;;6126722;23;797;-67
2022/08/20 07:12:15;;;;;;;;;;;23.40;73.20;;;;;;6127211;23;855;-67
2022/08/20 07:14:40;;;;;;;;;;;23.40;73.20;;;;;;6127294;23;896;-67
2022/08/20 07:17:06;;;;;;;;;;;23.40;73.20;;;;;;6126705;23;1274;-67
2022/08/20 07:19:31;;;;;;;;;;;23.30;73.10;;;;;;6127297;23;881;-66
2022/08/20 07:21:57;;;;;;;;;;;23.30;73.10;;;;;;6101257;23;869;-67
2022/08/20 07:24:22;;;;;;;;;;;23.30;73.10;;;;;;6126895;23;1922;-67
2022/08/20 07:26:50;;;;;;;;;;;23.40;73.10;;;;;;6126343;23;1196;-66
2022/08/20 07:29:16;;;;;;;;;;;23.40;73.20;;;;;;6127604;23;776;-68
2022/08/20 07:34:26;;;;;;;;;;;23.40;73.20;;;;;;6127681;23;545;-67
2022/08/20 07:36:51;;;;;;;;;;;23.30;73.10;;;;;;6126036;23;1288;-67
2022/08/20 07:39:17;;;;;;;;;;;23.40;73.10;;;;;;6126614;23;825;-67
2022/08/20 07:41:42;;;;;;;;;;;23.40;73.10;;;;;;6125378;23;875;-67
2022/08/20 07:44:08;;;;;;;;;;;23.40;73.20;;;;;;6124746;23;1928;-67
2022/08/20 07:46:33;;;;;;;;;;;23.30;73.10;;;;;;6125000;23;1300;-67
2022/08/20 07:49:04;;;;;;;;;;;23.40;73.10;;;;;;6099657;23;772;-68
2022/08/20 07:51:29;;;;;;;;;;;23.40;73.10;;;;;;6126136;23;772;-67
2022/08/20 07:53:57;;;;;;;;;;;23.40;73.10;;;;;;6125627;23;1054;-67
2022/08/20 07:56:22;;;;;;;;;;;23.40;73.10;;;;;;6098755;23;1203;-68
2022/08/20 07:58:49;;;;;;;;;;;23.40;73.10;;;;;;6100138;23;849;-69
2022/08/20 08:01:15;;;;;;;;;;;23.40;73.10;;;;;;6075253;23;1663;-69
2022/08/20 08:03:41;;;;;;;;;;;23.40;73.80;;;;;;6125045;23;1897;-67
2022/08/20 08:06:08;;;;;;;;;;;23.40;73.10;;;;;;6125784;23;1227;-68
2022/08/20 08:08:34;;;;;;;;;;;23.40;73.10;;;;;;6126872;23;828;-68
2022/08/20 08:10:59;;;;;;;;;;;23.30;73.10;;;;;;6101056;23;884;-68
2022/08/20 08:13:26;;;;;;;;;;;23.40;73.20;;;;;;6126746;23;887;-68
2022/08/20 08:15:52;;;;;;;;;;;23.40;73.10;;;;;;6125759;23;1201;-68
2022/08/20 08:18:23;;;;;;;;;;;23.30;73.10;;;;;;6126772;23;927;-68
2022/08/20 08:20:52;;;;;;;;;;;23.40;73.10;;;;;;6101492;23;789;-68
2022/08/20 08:23:19;;;;;;;;;;;23.40;73.10;;;;;;6125975;23;1889;-67
2022/08/20 08:25:44;;;;;;;;;;;23.40;73.20;;;;;;6125216;23;1208;-67
2022/08/20 08:28:10;;;;;;;;;;;23.40;73.20;;;;;;6100764;23;919;-68
2022/08/20 08:30:37;;;;;;;;;;;23.40;73.10;;;;;;6126897;23;801;-68
2022/08/20 08:35:46;;;;;;;;;;;23.40;73.10;;;;;;6125715;23;1243;-68
2022/08/20 08:38:12;;;;;;;;;;;23.40;73.10;;;;;;6126476;23;871;-68
2022/08/20 08:40:37;;;;;;;;;;;23.40;73.20;;;;;;6126758;23;797;-68
2022/08/20 08:43:03;;;;;;;;;;;23.40;73.10;;;;;;6100318;23;1854;-65
2022/08/20 08:45:42;;;;;;;;;;;23.40;73.20;;;;;;6099721;23;1220;-65
2022/08/20 08:48:12;;;;;;;;;;;23.40;73.20;;;;;;6100981;23;825;-65
2022/08/20 08:50:38;;;;;;;;;;;23.40;73.40;;;;;;6100943;23;817;-65
2022/08/20 08:53:04;;;;;;;;;;;23.40;73.30;;;;;;6100514;23;841;-65
2022/08/20 08:55:30;;;;;;;;;;;23.40;73.40;;;;;;6125767;23;1743;-65
2022/08/20 08:57:55;;;;;;;;;;;23.40;73.40;;;;;;6099894;23;868;-65
2022/08/20 09:00:22;;;;;;;;;;;23.40;73.40;;;;;;6100759;23;1054;-65
2022/08/20 09:02:55;;;;;;;;;;;23.40;73.30;;;;;;6100993;23;824;-65
2022/08/20 09:05:21;;;;;;;;;;;23.40;73.40;;;;;;6100237;23;1905;-65
2022/08/20 09:07:48;;;;;;;;;;;23.40;73.40;;;;;;6099691;23;1252;-65
2022/08/20 09:10:13;;;;;;;;;;;23.40;73.50;;;;;;6100129;23;844;-65
2022/08/20 09:12:39;;;;;;;;;;;23.40;73.60;;;;;;6126318;23;928;-65
2022/08/20 09:15:05;;;;;;;;;;;23.40;73.70;;;;;;6126087;23;1304;-65
2022/08/20 09:17:30;;;;;;;;;;;23.40;73.70;;;;;;6125431;23;797;-65
2022/08/20 09:19:56;;;;;;;;;;;23.40;73.60;;;;;;6125391;23;836;-65
2022/08/20 09:22:21;;;;;;;;;;;23.40;73.50;;;;;;6126416;23;844;-65
2022/08/20 09:24:47;;;;;;;;;;;23.40;73.40;;;;;;6100114;23;1889;-65
2022/08/20 09:27:12;;;;;;;;;;;23.40;73.30;;;;;;6124507;23;1274;-65
2022/08/20 09:29:38;;;;;;;;;;;23.40;73.30;;;;;;6125939;23;856;-65
2022/08/20 09:32:14;;;;;;;;;;;23.40;73.50;;;;;;6100599;23;1007;-66
2022/08/20 09:34:42;;;;;;;;;;;23.40;73.20;;;;;;6126220;23;1013;-65
2022/08/20 09:37:07;;;;;;;;;;;23.40;73.20;;;;;;6099520;23;1269;-66
2022/08/20 09:39:33;;;;;;;;;;;23.40;73.20;;;;;;6099677;23;930;-66
2022/08/20 09:42:11;;;;;;;;;;;23.40;73.20;;;;;;6100043;23;1362;-66
2022/08/20 09:44:37;;;;;;;;;;;23.40;73.20;;;;;;6125894;23;1934;-65
2022/08/20 09:47:03;;;;;;;;;;;23.40;73.10;;;;;;6125360;23;1159;-65
2022/08/20 09:49:28;;;;;;;;;;;23.40;73.10;;;;;;6100223;23;812;-65
2022/08/20 09:51:54;;;;;;;;;;;23.40;73.20;;;;;;6126001;23;717;-66
2022/08/20 09:54:19;;;;;;;;;;;23.40;73.10;;;;;;6099796;23;858;-66
2022/08/20 09:56:45;;;;;;;;;;;23.40;73.20;;;;;;6124952;23;1274;-65
2022/08/20 09:59:10;;;;;;;;;;;23.40;73.20;;;;;;6125945;23;880;-65
2022/08/20 10:01:35;;;;;;;;;;;23.40;73.20;;;;;;6124513;23;3734;-65
2022/08/20 10:04:01;;;;;;;;;;;23.40;73.20;;;;;;6125550;23;1889;-64
2022/08/20 10:06:26;;;;;;;;;;;23.40;73.20;;;;;;6124906;23;788;-65
2022/08/20 10:08:52;;;;;;;;;;;23.40;73.20;;;;;;6125344;23;789;-63
2022/08/20 10:11:17;;;;;;;;;;;23.40;73.20;;;;;;6125707;23;1259;-63
2022/08/20 10:13:43;;;;;;;;;;;23.40;73.30;;;;;;6125695;23;919;-64
2022/08/20 10:16:08;;;;;;;;;;;23.40;73.50;;;;;;6124943;23;823;-64
2022/08/20 10:18:34;;;;;;;;;;;23.40;73.60;;;;;;6125397;23;1014;-63
2022/08/20 10:20:59;;;;;;;;;;;23.40;73.70;;;;;;6099982;23;1180;-64
2022/08/20 10:23:25;;;;;;;;;;;23.40;73.80;;;;;;6125213;23;1914;-64
2022/08/20 10:25:50;;;;;;;;;;;23.40;73.70;;;;;;6125002;23;808;-64
2022/08/20 10:28:16;;;;;;;;;;;23.40;73.80;;;;;;6124964;23;1018;-64
2022/08/20 10:30:42;;;;;;;;;;;23.40;73.70;;;;;;6125725;23;1235;-64
2022/08/20 10:33:07;;;;;;;;;;;23.40;73.70;;;;;;6125475;23;797;-64
2022/08/20 10:35:33;;;;;;;;;;;23.40;73.70;;;;;;6098764;23;844;-64
2022/08/20 10:37:58;;;;;;;;;;;23.40;73.60;;;;;;6125115;23;896;-64
2022/08/20 10:40:23;;;;;;;;;;;23.40;73.60;;;;;;6124949;23;887;-64
2022/08/20 10:42:50;;;;;;;;;;;23.40;73.50;;;;;;6125344;23;1235;-64
2022/08/20 10:45:16;;;;;;;;;;;23.40;73.50;;;;;;6126265;23;1937;-64
2022/08/20 10:47:41;;;;;;;;;;;23.40;73.40;;;;;;6125150;23;820;-64
2022/08/20 10:50:07;;;;;;;;;;;23.40;73.40;;;;;;6099730;23;1034;-63
2022/08/20 10:52:33;;;;;;;;;;;23.40;73.40;;;;;;6125010;23;1223;-64
2022/08/20 10:54:58;;;;;;;;;;;23.40;73.30;;;;;;6125061;23;1061;-62
2022/08/20 10:57:26;;;;;;;;;;;23.40;73.30;;;;;;6124844;23;1018;-64
2022/08/20 10:59:52;;;;;;;;;;;23.40;73.30;;;;;;6125628;23;899;-64
2022/08/20 11:02:18;;;;;;;;;;;23.40;73.30;;;;;;6099405;23;1153;-64
2022/08/20 11:04:43;;;;;;;;;;;23.40;73.30;;;;;;6099022;23;1905;-64
2022/08/20 11:07:12;;;;;;;;;;;23.40;73.30;;;;;;6099335;23;762;-64
2022/08/20 11:09:37;;;;;;;;;;;23.40;73.20;;;;;;6125371;23;1043;-64
2022/08/20 11:12:03;;;;;;;;;;;23.40;73.20;;;;;;6099522;23;1277;-63
2022/08/20 11:14:28;;;;;;;;;;;23.40;73.20;;;;;;6125346;23;1108;-63
2022/08/20 11:16:54;;;;;;;;;;;23.40;73.30;;;;;;6124356;23;733;-64
2022/08/20 11:19:19;;;;;;;;;;;23.40;73.30;;;;;;6125393;23;832;-65
2022/08/20 11:21:45;;;;;;;;;;;23.40;73.30;;;;;;6125169;23;1215;-64
2022/08/20 11:24:10;;;;;;;;;;;23.40;73.40;;;;;;6125187;23;1902;-64
2022/08/20 11:26:35;;;;;;;;;;;23.40;73.50;;;;;;6124656;23;817;-64
2022/08/20 11:29:01;;;;;;;;;;;23.40;73.40;;;;;;6124719;23;805;-64
2022/08/20 11:31:26;;;;;;;;;;;23.40;74.20;;;;;;6125127;23;1282;-64
2022/08/20 11:33:52;;;;;;;;;;;23.40;73.50;;;;;;6125227;23;1011;-64
2022/08/20 11:36:17;;;;;;;;;;;23.40;73.50;;;;;;6124022;23;828;-64
2022/08/20 11:38:43;;;;;;;;;;;23.40;73.40;;;;;;6125162;23;983;-62
2022/08/20 11:41:08;;;;;;;;;;;23.40;73.40;;;;;;6124919;23;1165;-64
2022/08/20 11:43:33;;;;;;;;;;;23.40;73.40;;;;;;6126458;23;1903;-64
2022/08/20 11:45:59;;;;;;;;;;;23.40;73.50;;;;;;6126357;23;832;-64
2022/08/20 11:48:24;;;;;;;;;;;23.40;73.50;;;;;;6126601;23;805;-64
2022/08/20 11:50:50;;;;;;;;;;;23.40;73.50;;;;;;6126675;23;1219;-64
2022/08/20 11:53:15;;;;;;;;;;;23.40;73.50;;;;;;6127337;23;861;-65
2022/08/20 11:55:41;;;;;;;;;;;23.40;73.50;;;;;;6100513;23;836;-65
2022/08/20 11:58:06;;;;;;;;;;;23.40;73.60;;;;;;6100784;23;801;-65
2022/08/20 12:00:32;;;;;;;;;;;23.40;73.70;;;;;;6126838;23;924;-64
2022/08/20 12:02:57;;;;;;;;;;;23.40;73.80;;;;;;6100741;23;1208;-64
2022/08/20 12:05:23;;;;;;;;;;;23.40;73.80;;;;;;6126566;23;1932;-65
2022/08/20 12:07:48;;;;;;;;;;;23.40;73.90;;;;;;6126259;23;758;-65
2022/08/20 12:10:14;;;;;;;;;;;23.40;73.90;;;;;;6126791;23;832;-64
2022/08/20 12:12:39;;;;;;;;;;;23.40;73.80;;;;;;6126603;23;1279;-63
2022/08/20 12:15:05;;;;;;;;;;;23.40;73.80;;;;;;6126585;23;761;-65
2022/08/20 12:17:31;;;;;;;;;;;23.40;73.90;;;;;;6126310;23;879;-65
2022/08/20 12:19:57;;;;;;;;;;;23.40;74.00;;;;;;6126380;23;800;-65
2022/08/20 12:22:23;;;;;;;;;;;23.40;74.00;;;;;;6100426;23;1180;-65
2022/08/20 12:24:48;;;;;;;;;;;23.40;74.20;;;;;;6126531;23;1889;-65
2022/08/20 12:27:21;;;;;;;;;;;23.40;74.10;;;;;;6126208;23;824;-64
2022/08/20 12:29:47;;;;;;;;;;;23.40;74.10;;;;;;6100603;23;763;-65
2022/08/20 12:32:13;;;;;;;;;;;23.40;74.10;;;;;;6098290;23;1278;-65
2022/08/20 12:34:39;;;;;;;;;;;23.40;74.60;;;;;;6125898;23;927;-64
2022/08/20 12:37:06;;;;;;;;;;;23.40;75.50;;;;;;6074138;23;924;-64
2022/08/20 12:39:33;;;;;;;;;;;23.40;74.70;;;;;;6096496;23;845;-65
2022/08/20 12:41:59;;;;;;;;;;;23.40;74.70;;;;;;6123546;23;1172;-64
2022/08/20 12:44:25;;;;;;;;;;;23.40;74.70;;;;;;6121747;23;1927;-66
2022/08/20 12:46:50;;;;;;;;;;;23.40;74.90;;;;;;6124688;23;1061;-64
2022/08/20 12:49:15;;;;;;;;;;;23.40;74.50;;;;;;6098886;23;809;-65
2022/08/20 12:51:41;;;;;;;;;;;23.40;74.50;;;;;;6125313;23;1239;-65
2022/08/20 12:54:06;;;;;;;;;;;23.40;74.50;;;;;;6097219;23;889;-65
2022/08/20 12:56:32;;;;;;;;;;;23.40;74.30;;;;;;6122453;23;1050;-65
2022/08/20 12:58:57;;;;;;;;;;;23.40;74.20;;;;;;6123155;23;1007;-66
2022/08/20 13:01:23;;;;;;;;;;;23.40;74.20;;;;;;6123278;23;1287;-66
2022/08/20 13:03:48;;;;;;;;;;;23.40;74.20;;;;;;6123351;23;1901;-65
2022/08/20 13:06:13;;;;;;;;;;;23.40;74.10;;;;;;6123785;23;1089;-65
2022/08/20 13:08:39;;;;;;;;;;;23.40;74.10;;;;;;6094889;23;833;-66
2022/08/20 13:11:05;;;;;;;;;;;23.40;74.10;;;;;;6093462;23;1267;-65
2022/08/20 13:13:30;;;;;;;;;;;23.40;74.10;;;;;;6119036;23;792;-66
2022/08/20 13:15:56;;;;;;;;;;;23.40;74.00;;;;;;6121369;23;805;-65
2022/08/20 13:18:21;;;;;;;;;;;23.40;74.00;;;;;;6123024;23;769;-65
2022/08/20 13:20:47;;;;;;;;;;;23.40;73.80;;;;;;6122133;23;1287;-65
2022/08/20 13:23:12;;;;;;;;;;;23.40;73.80;;;;;;6100583;23;828;-65
2022/08/20 13:25:37;;;;;;;;;;;23.40;73.70;;;;;;6125062;23;796;-65
2022/08/20 13:28:03;;;;;;;;;;;23.40;73.70;;;;;;6125659;23;916;-64
2022/08/20 13:30:29;;;;;;;;;;;23.40;73.70;;;;;;6099559;23;979;-65
2022/08/20 13:32:54;;;;;;;;;;;23.40;73.70;;;;;;6096279;23;1318;-65
2022/08/20 13:35:20;;;;;;;;;;;23.40;73.70;;;;;;6124764;23;781;-65
2022/08/20 13:37:46;;;;;;;;;;;23.40;74.50;;;;;;6099497;23;825;-64
2022/08/20 13:40:11;;;;;;;;;;;23.40;73.70;;;;;;6099727;23;801;-64
2022/08/20 13:42:37;;;;;;;;;;;23.40;73.70;;;;;;6125930;23;1164;-64
2022/08/20 13:45:03;;;;;;;;;;;23.40;73.90;;;;;;6125822;23;1917;-65
2022/08/20 13:47:29;;;;;;;;;;;23.40;73.90;;;;;;6099245;23;800;-65
2022/08/20 13:49:55;;;;;;;;;;;23.40;73.70;;;;;;6099496;23;852;-65
2022/08/20 13:52:21;;;;;;;;;;;23.40;73.80;;;;;;6125915;23;1192;-63
2022/08/20 13:54:46;;;;;;;;;;;23.40;74.00;;;;;;6125784;23;808;-65
2022/08/20 13:57:13;;;;;;;;;;;23.40;74.10;;;;;;6125499;23;824;-63
2022/08/20 13:59:39;;;;;;;;;;;23.40;74.10;;;;;;6125421;23;1046;-65
2022/08/20 14:02:05;;;;;;;;;;;23.40;74.00;;;;;;6124696;23;1164;-65
2022/08/20 14:04:31;;;;;;;;;;;23.40;73.90;;;;;;6124351;23;1928;-66
2022/08/20 14:06:56;;;;;;;;;;;23.40;73.90;;;;;;6099117;23;1329;-65
2022/08/20 14:09:21;;;;;;;;;;;23.40;73.90;;;;;;6125655;23;817;-65
2022/08/20 14:11:47;;;;;;;;;;;23.40;74.00;;;;;;6125390;23;1287;-65
2022/08/20 14:14:12;;;;;;;;;;;23.40;73.90;;;;;;6125340;23;880;-65
2022/08/20 14:16:38;;;;;;;;;;;23.40;74.00;;;;;;6124773;23;900;-65
2022/08/20 14:19:04;;;;;;;;;;;23.40;73.90;;;;;;6126028;23;774;-64
2022/08/20 14:21:29;;;;;;;;;;;23.40;73.90;;;;;;6099420;23;1235;-65
2022/08/20 14:23:56;;;;;;;;;;;23.40;73.90;;;;;;6125455;23;1921;-65
2022/08/20 14:26:22;;;;;;;;;;;23.40;73.80;;;;;;6125607;23;852;-65
2022/08/20 14:28:48;;;;;;;;;;;23.40;73.80;;;;;;6099424;23;943;-64
2022/08/20 14:31:13;;;;;;;;;;;23.40;73.80;;;;;;6124893;23;1247;-64
2022/08/20 14:33:39;;;;;;;;;;;23.40;73.70;;;;;;6125590;23;932;-65
2022/08/20 14:36:04;;;;;;;;;;;23.40;73.70;;;;;;6125057;23;1014;-65
2022/08/20 14:38:29;;;;;;;;;;;23.40;73.60;;;;;;6125618;23;781;-64
2022/08/20 14:40:55;;;;;;;;;;;23.40;73.60;;;;;;6125265;23;1295;-65